Fort Wainwright, AK (99703)

12:41 AM AKST on January 31, 2015 (GMT -0900)
AKDOT Badger Road @ Old Richardson Highway | Change Station
CLOSE
Current Station
Personal Weather Station
Location: Badger, AK
Elevation: 495 ft
Nearby Weather Stations

Elev 495 ft 64.81 °N, 147.57 °W | Updated 50 minutes ago

Clear
Clear
-27 °F
Feels Like -27 °F
N
0
Wind Variable Wind from SE
Gusts 1.0 mph

Today
High -- | Low -- °F
--% Chance of Precip.
Yesterday
High -- | Low -- °F
Precip. -- in
9:39 AM 4:29 PM
Waxing Gibbous, 88% visible
Pressure 30.84 in
Visibility 10.0 miles
Clouds Clear
Windchill -27 °F
Dew Point -33 °F
Humidity 72%
Rainfall -999.00 in
Snow Depth Not available.
UV 0 out of 12
Pollen Not available.
Air Quality Not available.
Flu Activity Not available.
METAR PAFB 310856Z AUTO 00000KT 10SM CLR M33/M37 A3077 RMK SLP444 T13331372 55003 $ VIA AUTODIAL

More Conditions Fewer Conditions

Pressure 30.84 in
Visibility 10.0 miles
Clouds Clear
Windchill -27 °F
Dew Point -33 °F
Humidity 72%
Rainfall -999.00 in
Snow Depth Not available.
UV 0 out of 12
Pollen Not available.
Air Quality Not available.
Flu Activity Not available.
METAR PAFB 310856Z AUTO 00000KT 10SM CLR M33/M37 A3077 RMK SLP444 T13331372 55003 $ VIA AUTODIAL

More Conditions Fewer Conditions

10-Day Weather Forecast

Almanac

Astronomy

Jan. 31, 2015 Rise Set
Actual Time
Civil Twilight
Nautical Twilight
Astronomical Twilight
Moon
Length of Visible Light
Length of Day
Tomorrow will be .
, % of the Moon is Illuminated

Today's Extremes

State Highs State Lows

Community

WunderPhotos

Upload Photos

1,792,021 photos uploaded!

WunderBlogs® & News

Nearby

Air Quality

  Air Quality AQ Index Pollutant
Not available.

Snow Depth

Station Depth Elevation

Earthquake Activity

City Distance Mag. Time & Date
Minimum magnitude displayed is 2.5.

Coastal Water Temperatures

Place Temperature

Nearby Weather Stations